sensor_id;sensor_type;location;lat;lon;timestamp;P1;durP1;ratioP1;P2;durP2;ratioP2
49858;SDS011;35756;52.346;13.622;2023-05-10T00:02:13;970.70;;;897.08;;
49858;SDS011;35756;52.346;13.622;2023-05-10T00:04:38;862.00;;;800.47;;
49858;SDS011;35756;52.346;13.622;2023-05-10T00:07:03;849.00;;;792.88;;
49858;SDS011;35756;52.346;13.622;2023-05-10T00:09:29;797.75;;;743.40;;
49858;SDS011;35756;52.346;13.622;2023-05-10T00:11:54;863.03;;;803.28;;
49858;SDS011;35756;52.346;13.622;2023-05-10T00:14:19;845.28;;;789.72;;
49858;SDS011;35756;52.346;13.622;2023-05-10T00:16:45;830.80;;;772.92;;
49858;SDS011;35756;52.346;13.622;2023-05-10T00:19:10;759.80;;;712.30;;
49858;SDS011;35756;52.346;13.622;2023-05-10T00:21:35;694.95;;;653.35;;
49858;SDS011;35756;52.346;13.622;2023-05-10T00:24:01;751.15;;;703.75;;
49858;SDS011;35756;52.346;13.622;2023-05-10T00:26:26;540.05;;;510.55;;
49858;SDS011;35756;52.346;13.622;2023-05-10T00:28:51;587.63;;;552.47;;
49858;SDS011;35756;52.346;13.622;2023-05-10T00:31:16;692.30;;;649.28;;
49858;SDS011;35756;52.346;13.622;2023-05-10T00:33:42;568.80;;;535.97;;
49858;SDS011;35756;52.346;13.622;2023-05-10T00:36:07;702.30;;;659.92;;
49858;SDS011;35756;52.346;13.622;2023-05-10T00:38:33;545.55;;;512.47;;
49858;SDS011;35756;52.346;13.622;2023-05-10T00:40:58;637.15;;;599.03;;
49858;SDS011;35756;52.346;13.622;2023-05-10T00:43:23;748.30;;;701.97;;
49858;SDS011;35756;52.346;13.622;2023-05-10T00:45:49;424.85;;;400.58;;
49858;SDS011;35756;52.346;13.622;2023-05-10T00:48:14;674.22;;;632.92;;
49858;SDS011;35756;52.346;13.622;2023-05-10T00:50:39;642.17;;;606.13;;
49858;SDS011;35756;52.346;13.622;2023-05-10T00:53:05;710.88;;;669.15;;
49858;SDS011;35756;52.346;13.622;2023-05-10T00:55:30;813.60;;;759.33;;
49858;SDS011;35756;52.346;13.622;2023-05-10T00:57:56;704.38;;;663.47;;
49858;SDS011;35756;52.346;13.622;2023-05-10T01:00:21;746.55;;;696.80;;
49858;SDS011;35756;52.346;13.622;2023-05-10T01:02:47;626.90;;;588.65;;
49858;SDS011;35756;52.346;13.622;2023-05-10T01:05:12;578.60;;;545.53;;
49858;SDS011;35756;52.346;13.622;2023-05-10T01:07:38;584.10;;;551.22;;
49858;SDS011;35756;52.346;13.622;2023-05-10T01:10:04;479.63;;;452.70;;
49858;SDS011;35756;52.346;13.622;2023-05-10T01:12:30;508.65;;;480.42;;
49858;SDS011;35756;52.346;13.622;2023-05-10T01:14:56;448.95;;;425.30;;
49858;SDS011;35756;52.346;13.622;2023-05-10T01:17:22;477.20;;;452.23;;
49858;SDS011;35756;52.346;13.622;2023-05-10T01:19:47;391.10;;;369.23;;
49858;SDS011;35756;52.346;13.622;2023-05-10T01:22:37;324.38;;;306.75;;
49858;SDS011;35756;52.346;13.622;2023-05-10T01:25:42;348.33;;;328.77;;
49858;SDS011;35756;52.346;13.622;2023-05-10T01:28:39;404.75;;;381.52;;
49858;SDS011;35756;52.346;13.622;2023-05-10T01:31:28;363.33;;;341.90;;
49858;SDS011;35756;52.346;13.622;2023-05-10T01:34:09;267.00;;;252.23;;
49858;SDS011;35756;52.346;13.622;2023-05-10T01:36:49;254.85;;;242.05;;
49858;SDS011;35756;52.346;13.622;2023-05-10T01:39:28;202.10;;;191.02;;
49858;SDS011;35756;52.346;13.622;2023-05-10T01:42:11;202.25;;;191.32;;
49858;SDS011;35756;52.346;13.622;2023-05-10T01:44:58;211.02;;;200.00;;
49858;SDS011;35756;52.346;13.622;2023-05-10T01:47:35;128.80;;;121.07;;
49858;SDS011;35756;52.346;13.622;2023-05-10T01:50:03;83.85;;;78.40;;
49858;SDS011;35756;52.346;13.622;2023-05-10T01:52:31;85.22;;;79.93;;
49858;SDS011;35756;52.346;13.622;2023-05-10T01:55:19;87.30;;;81.90;;
49858;SDS011;35756;52.346;13.622;2023-05-10T01:57:44;121.38;;;113.78;;
49858;SDS011;35756;52.346;13.622;2023-05-10T02:00:11;100.63;;;93.88;;
49858;SDS011;35756;52.346;13.622;2023-05-10T02:02:37;72.38;;;67.38;;
49858;SDS011;35756;52.346;13.622;2023-05-10T02:05:05;66.30;;;62.53;;
49858;SDS011;35756;52.346;13.622;2023-05-10T02:07:31;64.70;;;59.75;;
49858;SDS011;35756;52.346;13.622;2023-05-10T02:09:57;59.97;;;55.65;;
49858;SDS011;35756;52.346;13.622;2023-05-10T02:12:23;57.95;;;54.40;;
49858;SDS011;35756;52.346;13.622;2023-05-10T02:14:49;45.08;;;41.70;;
49858;SDS011;35756;52.346;13.622;2023-05-10T02:17:14;60.92;;;56.70;;
49858;SDS011;35756;52.346;13.622;2023-05-10T02:19:41;49.47;;;46.03;;
49858;SDS011;35756;52.346;13.622;2023-05-10T02:22:06;46.30;;;42.85;;
49858;SDS011;35756;52.346;13.622;2023-05-10T02:24:33;50.60;;;47.40;;
49858;SDS011;35756;52.346;13.622;2023-05-10T02:26:59;63.35;;;58.65;;
49858;SDS011;35756;52.346;13.622;2023-05-10T02:29:25;49.28;;;46.22;;
49858;SDS011;35756;52.346;13.622;2023-05-10T02:31:51;46.15;;;42.55;;
49858;SDS011;35756;52.346;13.622;2023-05-10T02:34:17;46.15;;;42.80;;
49858;SDS011;35756;52.346;13.622;2023-05-10T02:36:44;40.28;;;37.53;;
49858;SDS011;35756;52.346;13.622;2023-05-10T02:39:09;45.35;;;41.63;;
49858;SDS011;35756;52.346;13.622;2023-05-10T02:41:37;41.05;;;37.78;;
49858;SDS011;35756;52.346;13.622;2023-05-10T02:44:03;48.90;;;45.35;;
49858;SDS011;35756;52.346;13.622;2023-05-10T02:46:31;47.95;;;44.45;;
49858;SDS011;35756;52.346;13.622;2023-05-10T02:48:57;41.10;;;37.80;;
49858;SDS011;35756;52.346;13.622;2023-05-10T02:51:24;53.40;;;49.47;;
49858;SDS011;35756;52.346;13.622;2023-05-10T02:53:50;45.80;;;42.60;;
49858;SDS011;35756;52.346;13.622;2023-05-10T02:56:20;52.83;;;49.08;;
49858;SDS011;35756;52.346;13.622;2023-05-10T02:58:49;56.03;;;52.03;;
49858;SDS011;35756;52.346;13.622;2023-05-10T03:01:15;43.50;;;40.35;;
49858;SDS011;35756;52.346;13.622;2023-05-10T03:03:40;52.22;;;48.00;;
49858;SDS011;35756;52.346;13.622;2023-05-10T03:06:05;49.63;;;46.45;;
49858;SDS011;35756;52.346;13.622;2023-05-10T03:08:31;50.05;;;46.45;;
49858;SDS011;35756;52.346;13.622;2023-05-10T03:11:01;64.75;;;60.40;;
49858;SDS011;35756;52.346;13.622;2023-05-10T03:13:55;68.13;;;63.97;;
49858;SDS011;35756;52.346;13.622;2023-05-10T03:16:27;69.07;;;65.18;;
49858;SDS011;35756;52.346;13.622;2023-05-10T03:18:54;48.00;;;44.75;;
49858;SDS011;35756;52.346;13.622;2023-05-10T03:21:25;50.90;;;47.53;;
49858;SDS011;35756;52.346;13.622;2023-05-10T03:23:58;44.15;;;40.83;;
49858;SDS011;35756;52.346;13.622;2023-05-10T03:26:27;57.83;;;53.92;;
49858;SDS011;35756;52.346;13.622;2023-05-10T03:28:52;40.63;;;37.67;;
49858;SDS011;35756;52.346;13.622;2023-05-10T03:31:18;50.78;;;47.20;;
49858;SDS011;35756;52.346;13.622;2023-05-10T03:33:47;57.38;;;53.38;;
49858;SDS011;35756;52.346;13.622;2023-05-10T03:36:13;44.83;;;41.35;;
49858;SDS011;35756;52.346;13.622;2023-05-10T03:38:38;193.38;;;155.05;;
49858;SDS011;35756;52.346;13.622;2023-05-10T03:41:04;71.55;;;67.22;;
49858;SDS011;35756;52.346;13.622;2023-05-10T03:43:29;48.45;;;44.83;;
49858;SDS011;35756;52.346;13.622;2023-05-10T03:45:54;63.75;;;59.55;;
49858;SDS011;35756;52.346;13.622;2023-05-10T03:48:19;58.45;;;54.25;;
49858;SDS011;35756;52.346;13.622;2023-05-10T03:50:45;70.15;;;66.05;;
49858;SDS011;35756;52.346;13.622;2023-05-10T03:53:10;45.10;;;41.92;;
49858;SDS011;35756;52.346;13.622;2023-05-10T03:55:36;50.15;;;46.50;;
49858;SDS011;35756;52.346;13.622;2023-05-10T03:58:01;76.07;;;71.88;;
49858;SDS011;35756;52.346;13.622;2023-05-10T04:00:26;50.80;;;47.45;;
49858;SDS011;35756;52.346;13.622;2023-05-10T04:02:52;55.75;;;51.72;;
49858;SDS011;35756;52.346;13.622;2023-05-10T04:05:17;68.57;;;63.58;;
49858;SDS011;35756;52.346;13.622;2023-05-10T04:07:42;56.97;;;53.08;;
49858;SDS011;35756;52.346;13.622;2023-05-10T04:10:10;159.90;;;148.88;;
49858;SDS011;35756;52.346;13.622;2023-05-10T04:12:37;55.97;;;52.42;;
49858;SDS011;35756;52.346;13.622;2023-05-10T04:15:02;79.13;;;74.20;;
49858;SDS011;35756;52.346;13.622;2023-05-10T04:17:28;137.95;;;130.52;;
49858;SDS011;35756;52.346;13.622;2023-05-10T04:19:53;102.45;;;95.72;;
49858;SDS011;35756;52.346;13.622;2023-05-10T04:22:19;123.68;;;117.13;;
49858;SDS011;35756;52.346;13.622;2023-05-10T04:24:45;173.90;;;165.35;;
49858;SDS011;35756;52.346;13.622;2023-05-10T04:27:10;261.58;;;248.68;;
49858;SDS011;35756;52.346;13.622;2023-05-10T04:29:36;481.73;;;458.58;;
49858;SDS011;35756;52.346;13.622;2023-05-10T04:32:01;545.08;;;518.03;;
49858;SDS011;35756;52.346;13.622;2023-05-10T04:34:27;575.47;;;545.00;;
49858;SDS011;35756;52.346;13.622;2023-05-10T04:36:52;543.97;;;515.80;;
49858;SDS011;35756;52.346;13.622;2023-05-10T04:39:17;751.17;;;707.13;;
49858;SDS011;35756;52.346;13.622;2023-05-10T04:41:43;691.28;;;652.00;;
49858;SDS011;35756;52.346;13.622;2023-05-10T04:44:08;819.85;;;770.28;;
49858;SDS011;35756;52.346;13.622;2023-05-10T04:46:33;850.85;;;797.47;;
49858;SDS011;35756;52.346;13.622;2023-05-10T04:48:59;821.60;;;764.05;;
49858;SDS011;35756;52.346;13.622;2023-05-10T04:51:24;847.17;;;792.15;;
49858;SDS011;35756;52.346;13.622;2023-05-10T04:53:49;799.53;;;750.35;;
49858;SDS011;35756;52.346;13.622;2023-05-10T04:56:14;840.10;;;786.08;;
49858;SDS011;35756;52.346;13.622;2023-05-10T04:58:40;975.10;;;901.80;;
49858;SDS011;35756;52.346;13.622;2023-05-10T05:01:06;860.03;;;804.75;;
49858;SDS011;35756;52.346;13.622;2023-05-10T05:03:33;979.20;;;909.30;;
49858;SDS011;35756;52.346;13.622;2023-05-10T05:05:58;935.85;;;865.72;;
49858;SDS011;35756;52.346;13.622;2023-05-10T05:08:23;1109.45;;;999.90;;
49858;SDS011;35756;52.346;13.622;2023-05-10T05:10:49;1145.65;;;999.90;;
49858;SDS011;35756;52.346;13.622;2023-05-10T05:13:15;1157.38;;;999.90;;
49858;SDS011;35756;52.346;13.622;2023-05-10T05:15:40;630.65;;;580.25;;
49858;SDS011;35756;52.346;13.622;2023-05-10T05:18:05;1968.63;;;999.90;;
49858;SDS011;35756;52.346;13.622;2023-05-10T05:20:34;1999.90;;;999.90;;
49858;SDS011;35756;52.346;13.622;2023-05-10T05:22:59;1999.90;;;999.90;;
49858;SDS011;35756;52.346;13.622;2023-05-10T05:25:25;1999.90;;;999.90;;
49858;SDS011;35756;52.346;13.622;2023-05-10T05:27:50;1999.90;;;999.90;;
49858;SDS011;35756;52.346;13.622;2023-05-10T05:30:15;1999.90;;;999.90;;
49858;SDS011;35756;52.346;13.622;2023-05-10T05:32:41;1999.90;;;999.90;;
49858;SDS011;35756;52.346;13.622;2023-05-10T05:35:06;1999.90;;;999.90;;
49858;SDS011;35756;52.346;13.622;2023-05-10T05:37:32;1999.90;;;999.90;;
49858;SDS011;35756;52.346;13.622;2023-05-10T05:39:57;1999.90;;;999.90;;
49858;SDS011;35756;52.346;13.622;2023-05-10T05:42:22;1999.90;;;999.90;;
49858;SDS011;35756;52.346;13.622;2023-05-10T05:44:47;1999.90;;;999.90;;
49858;SDS011;35756;52.346;13.622;2023-05-10T05:47:13;1999.90;;;999.90;;
49858;SDS011;35756;52.346;13.622;2023-05-10T05:49:38;1999.90;;;999.90;;
49858;SDS011;35756;52.346;13.622;2023-05-10T05:52:04;1999.90;;;999.90;;
49858;SDS011;35756;52.346;13.622;2023-05-10T05:54:30;1999.90;;;999.90;;
49858;SDS011;35756;52.346;13.622;2023-05-10T05:56:56;1999.90;;;999.90;;
49858;SDS011;35756;52.346;13.622;2023-05-10T05:59:22;1999.90;;;999.90;;
49858;SDS011;35756;52.346;13.622;2023-05-10T06:01:47;1999.90;;;999.90;;
49858;SDS011;35756;52.346;13.622;2023-05-10T06:04:12;1999.90;;;999.90;;
49858;SDS011;35756;52.346;13.622;2023-05-10T06:06:38;1999.90;;;999.90;;
49858;SDS011;35756;52.346;13.622;2023-05-10T06:09:03;1999.90;;;999.90;;
49858;SDS011;35756;52.346;13.622;2023-05-10T06:11:28;1999.90;;;999.90;;
49858;SDS011;35756;52.346;13.622;2023-05-10T06:13:55;1999.90;;;999.90;;
49858;SDS011;35756;52.346;13.622;2023-05-10T06:16:21;1999.90;;;999.90;;
49858;SDS011;35756;52.346;13.622;2023-05-10T06:18:46;1999.90;;;999.90;;
49858;SDS011;35756;52.346;13.622;2023-05-10T06:21:11;1999.90;;;999.90;;
49858;SDS011;35756;52.346;13.622;2023-05-10T06:23:37;1999.90;;;999.90;;
49858;SDS011;35756;52.346;13.622;2023-05-10T06:26:02;1999.90;;;999.90;;
49858;SDS011;35756;52.346;13.622;2023-05-10T06:28:28;1999.90;;;999.90;;
49858;SDS011;35756;52.346;13.622;2023-05-10T06:30:53;1999.90;;;999.90;;
49858;SDS011;35756;52.346;13.622;2023-05-10T06:33:18;1999.90;;;999.90;;
49858;SDS011;35756;52.346;13.622;2023-05-10T06:35:43;1999.90;;;999.90;;
49858;SDS011;35756;52.346;13.622;2023-05-10T06:38:09;1999.90;;;999.90;;
49858;SDS011;35756;52.346;13.622;2023-05-10T06:40:34;1999.90;;;999.90;;
49858;SDS011;35756;52.346;13.622;2023-05-10T06:43:00;1999.90;;;999.90;;
49858;SDS011;35756;52.346;13.622;2023-05-10T06:45:26;1999.90;;;999.90;;
49858;SDS011;35756;52.346;13.622;2023-05-10T06:47:51;1999.90;;;999.90;;
49858;SDS011;35756;52.346;13.622;2023-05-10T06:50:16;1999.90;;;999.90;;
49858;SDS011;35756;52.346;13.622;2023-05-10T06:52:41;1999.90;;;999.90;;
49858;SDS011;35756;52.346;13.622;2023-05-10T06:55:07;1999.90;;;999.90;;
49858;SDS011;35756;52.346;13.622;2023-05-10T06:57:33;1999.90;;;999.90;;
49858;SDS011;35756;52.346;13.622;2023-05-10T06:59:58;1999.90;;;999.90;;
49858;SDS011;35756;52.346;13.622;2023-05-10T07:02:24;1999.90;;;999.90;;
49858;SDS011;35756;52.346;13.622;2023-05-10T07:04:49;1999.90;;;999.90;;
49858;SDS011;35756;52.346;13.622;2023-05-10T07:07:16;1999.90;;;999.90;;
49858;SDS011;35756;52.346;13.622;2023-05-10T07:09:41;1999.90;;;999.90;;
49858;SDS011;35756;52.346;13.622;2023-05-10T07:12:07;1999.90;;;999.90;;
49858;SDS011;35756;52.346;13.622;2023-05-10T07:14:32;1999.90;;;999.90;;
49858;SDS011;35756;52.346;13.622;2023-05-10T07:16:57;1999.90;;;999.90;;
49858;SDS011;35756;52.346;13.622;2023-05-10T07:19:23;1999.90;;;999.90;;
49858;SDS011;35756;52.346;13.622;2023-05-10T07:21:48;1999.90;;;999.90;;
49858;SDS011;35756;52.346;13.622;2023-05-10T07:24:13;1999.90;;;999.90;;
49858;SDS011;35756;52.346;13.622;2023-05-10T07:26:39;1999.90;;;999.90;;
49858;SDS011;35756;52.346;13.622;2023-05-10T07:29:04;1999.90;;;999.90;;
49858;SDS011;35756;52.346;13.622;2023-05-10T07:31:30;1999.90;;;999.90;;
49858;SDS011;35756;52.346;13.622;2023-05-10T07:33:55;1999.90;;;999.90;;
49858;SDS011;35756;52.346;13.622;2023-05-10T07:36:20;1999.90;;;999.90;;
49858;SDS011;35756;52.346;13.622;2023-05-10T07:38:46;1999.90;;;999.90;;
49858;SDS011;35756;52.346;13.622;2023-05-10T07:41:11;1999.90;;;999.90;;
49858;SDS011;35756;52.346;13.622;2023-05-10T07:43:36;1999.90;;;999.90;;
49858;SDS011;35756;52.346;13.622;2023-05-10T07:46:02;1999.90;;;999.90;;
49858;SDS011;35756;52.346;13.622;2023-05-10T07:48:27;1626.78;;;783.67;;
49858;SDS011;35756;52.346;13.622;2023-05-10T07:50:52;1999.90;;;999.90;;
49858;SDS011;35756;52.346;13.622;2023-05-10T07:53:18;1999.90;;;999.90;;
49858;SDS011;35756;52.346;13.622;2023-05-10T07:55:43;1124.63;;;535.22;;
49858;SDS011;35756;52.346;13.622;2023-05-10T07:58:09;1222.30;;;557.33;;
49858;SDS011;35756;52.346;13.622;2023-05-10T08:00:34;1325.85;;;600.22;;
49858;SDS011;35756;52.346;13.622;2023-05-10T08:02:59;1742.53;;;574.10;;
49858;SDS011;35756;52.346;13.622;2023-05-10T08:05:24;1031.30;;;414.45;;
49858;SDS011;35756;52.346;13.622;2023-05-10T08:07:50;1999.90;;;913.92;;
49858;SDS011;35756;52.346;13.622;2023-05-10T08:10:15;1403.88;;;449.73;;
49858;SDS011;35756;52.346;13.622;2023-05-10T08:12:41;1701.18;;;811.72;;
49858;SDS011;35756;52.346;13.622;2023-05-10T08:15:07;1358.60;;;432.02;;
49858;SDS011;35756;52.346;13.622;2023-05-10T08:17:33;1860.88;;;800.40;;
49858;SDS011;35756;52.346;13.622;2023-05-10T08:19:58;842.35;;;259.55;;
49858;SDS011;35756;52.346;13.622;2023-05-10T08:22:23;1647.88;;;544.80;;
49858;SDS011;35756;52.346;13.622;2023-05-10T08:24:49;1999.90;;;745.08;;
49858;SDS011;35756;52.346;13.622;2023-05-10T08:27:14;1999.90;;;932.88;;
49858;SDS011;35756;52.346;13.622;2023-05-10T08:29:39;1999.90;;;926.80;;
49858;SDS011;35756;52.346;13.622;2023-05-10T08:32:04;1999.90;;;775.28;;
49858;SDS011;35756;52.346;13.622;2023-05-10T08:34:30;1999.90;;;908.53;;
49858;SDS011;35756;52.346;13.622;2023-05-10T08:36:56;1999.90;;;717.92;;
49858;SDS011;35756;52.346;13.622;2023-05-10T08:39:21;1663.95;;;537.15;;
49858;SDS011;35756;52.346;13.622;2023-05-10T08:41:46;1999.90;;;726.25;;
49858;SDS011;35756;52.346;13.622;2023-05-10T08:44:13;1492.35;;;566.78;;
49858;SDS011;35756;52.346;13.622;2023-05-10T08:46:38;1999.90;;;991.00;;
49858;SDS011;35756;52.346;13.622;2023-05-10T08:49:09;1972.78;;;810.65;;
49858;SDS011;35756;52.346;13.622;2023-05-10T08:51:39;1323.95;;;418.80;;
49858;SDS011;35756;52.346;13.622;2023-05-10T08:54:05;1999.90;;;845.75;;
49858;SDS011;35756;52.346;13.622;2023-05-10T08:56:31;1352.13;;;416.88;;
49858;SDS011;35756;52.346;13.622;2023-05-10T08:58:56;1999.90;;;999.90;;
49858;SDS011;35756;52.346;13.622;2023-05-10T09:01:22;1709.00;;;540.85;;
49858;SDS011;35756;52.346;13.622;2023-05-10T09:03:48;1999.90;;;999.90;;
49858;SDS011;35756;52.346;13.622;2023-05-10T09:06:13;1643.97;;;608.28;;
49858;SDS011;35756;52.346;13.622;2023-05-10T09:08:39;1999.90;;;931.08;;
49858;SDS011;35756;52.346;13.622;2023-05-10T09:11:05;1703.45;;;541.08;;
49858;SDS011;35756;52.346;13.622;2023-05-10T09:13:31;1921.15;;;587.47;;
49858;SDS011;35756;52.346;13.622;2023-05-10T09:15:57;1999.90;;;999.90;;
49858;SDS011;35756;52.346;13.622;2023-05-10T09:18:22;1999.90;;;999.90;;
49858;SDS011;35756;52.346;13.622;2023-05-10T09:20:48;1999.90;;;999.90;;
49858;SDS011;35756;52.346;13.622;2023-05-10T09:23:13;1999.90;;;999.90;;
49858;SDS011;35756;52.346;13.622;2023-05-10T09:25:40;1999.90;;;999.90;;
49858;SDS011;35756;52.346;13.622;2023-05-10T09:28:06;1999.90;;;999.90;;
49858;SDS011;35756;52.346;13.622;2023-05-10T09:30:33;1999.90;;;999.90;;
49858;SDS011;35756;52.346;13.622;2023-05-10T09:32:59;1999.90;;;999.90;;
49858;SDS011;35756;52.346;13.622;2023-05-10T09:35:26;1999.90;;;999.90;;
49858;SDS011;35756;52.346;13.622;2023-05-10T09:37:53;1999.90;;;999.90;;
49858;SDS011;35756;52.346;13.622;2023-05-10T09:40:20;1999.90;;;999.90;;
49858;SDS011;35756;52.346;13.622;2023-05-10T09:45:34;1999.90;;;999.90;;
49858;SDS011;35756;52.346;13.622;2023-05-10T09:48:00;1999.90;;;999.90;;
49858;SDS011;35756;52.346;13.622;2023-05-10T09:50:27;1999.90;;;999.90;;
49858;SDS011;35756;52.346;13.622;2023-05-10T09:53:00;1999.90;;;999.90;;
49858;SDS011;35756;52.346;13.622;2023-05-10T09:55:40;1999.90;;;999.90;;
49858;SDS011;35756;52.346;13.622;2023-05-10T10:00:37;1999.90;;;999.90;;
49858;SDS011;35756;52.346;13.622;2023-05-10T10:03:06;1999.90;;;999.90;;
49858;SDS011;35756;52.346;13.622;2023-05-10T10:05:39;1999.90;;;999.90;;
49858;SDS011;35756;52.346;13.622;2023-05-10T10:08:06;1999.90;;;999.90;;
49858;SDS011;35756;52.346;13.622;2023-05-10T10:10:32;1999.90;;;999.90;;
49858;SDS011;35756;52.346;13.622;2023-05-10T10:12:58;1999.90;;;999.90;;
49858;SDS011;35756;52.346;13.622;2023-05-10T10:15:24;1999.90;;;999.90;;
49858;SDS011;35756;52.346;13.622;2023-05-10T10:17:50;1999.90;;;999.90;;
49858;SDS011;35756;52.346;13.622;2023-05-10T10:20:17;1999.90;;;999.90;;
49858;SDS011;35756;52.346;13.622;2023-05-10T10:22:43;1999.90;;;999.90;;
49858;SDS011;35756;52.346;13.622;2023-05-10T10:25:10;1999.90;;;999.90;;
49858;SDS011;35756;52.346;13.622;2023-05-10T10:30:20;1999.90;;;999.90;;
49858;SDS011;35756;52.346;13.622;2023-05-10T10:33:10;1999.90;;;999.90;;
49858;SDS011;35756;52.346;13.622;2023-05-10T10:35:53;1999.90;;;999.90;;
49858;SDS011;35756;52.346;13.622;2023-05-10T10:38:20;1999.90;;;999.90;;
49858;SDS011;35756;52.346;13.622;2023-05-10T10:40:45;1999.90;;;999.90;;
49858;SDS011;35756;52.346;13.622;2023-05-10T10:43:23;1999.90;;;999.90;;
49858;SDS011;35756;52.346;13.622;2023-05-10T10:48:38;1999.90;;;999.90;;
49858;SDS011;35756;52.346;13.622;2023-05-10T10:51:03;1999.90;;;999.90;;
49858;SDS011;35756;52.346;13.622;2023-05-10T10:53:29;1999.90;;;999.90;;
49858;SDS011;35756;52.346;13.622;2023-05-10T10:56:02;1999.90;;;999.90;;
49858;SDS011;35756;52.346;13.622;2023-05-10T10:58:31;1999.90;;;999.90;;
49858;SDS011;35756;52.346;13.622;2023-05-10T11:01:13;1999.90;;;999.90;;
49858;SDS011;35756;52.346;13.622;2023-05-10T11:03:40;1999.90;;;999.90;;
49858;SDS011;35756;52.346;13.622;2023-05-10T11:06:06;1999.90;;;999.90;;
49858;SDS011;35756;52.346;13.622;2023-05-10T11:08:32;1999.90;;;999.90;;
49858;SDS011;35756;52.346;13.622;2023-05-10T11:13:27;1999.90;;;999.90;;
49858;SDS011;35756;52.346;13.622;2023-05-10T11:15:55;1999.90;;;999.90;;
49858;SDS011;35756;52.346;13.622;2023-05-10T11:18:26;1999.90;;;999.90;;
49858;SDS011;35756;52.346;13.622;2023-05-10T11:20:59;1999.90;;;999.90;;
49858;SDS011;35756;52.346;13.622;2023-05-10T11:24:12;1999.90;;;999.90;;
49858;SDS011;35756;52.346;13.622;2023-05-10T11:26:21;1999.90;;;999.90;;
49858;SDS011;35756;52.346;13.622;2023-05-10T11:28:50;1999.90;;;999.90;;
49858;SDS011;35756;52.346;13.622;2023-05-10T11:31:17;1999.90;;;999.90;;
49858;SDS011;35756;52.346;13.622;2023-05-10T11:33:50;1999.90;;;999.90;;
49858;SDS011;35756;52.346;13.622;2023-05-10T11:36:17;1999.90;;;999.90;;
49858;SDS011;35756;52.346;13.622;2023-05-10T11:38:43;1999.90;;;999.90;;
49858;SDS011;35756;52.346;13.622;2023-05-10T11:41:09;1999.90;;;999.90;;
49858;SDS011;35756;52.346;13.622;2023-05-10T11:43:36;1999.90;;;999.90;;
49858;SDS011;35756;52.346;13.622;2023-05-10T11:46:03;1999.90;;;999.90;;
49858;SDS011;35756;52.346;13.622;2023-05-10T11:48:30;1999.90;;;999.90;;
49858;SDS011;35756;52.346;13.622;2023-05-10T11:50:55;1999.90;;;999.90;;
49858;SDS011;35756;52.346;13.622;2023-05-10T11:53:23;1999.90;;;999.90;;
49858;SDS011;35756;52.346;13.622;2023-05-10T11:55:50;1999.90;;;999.90;;
49858;SDS011;35756;52.346;13.622;2023-05-10T11:58:17;1999.90;;;999.90;;
49858;SDS011;35756;52.346;13.622;2023-05-10T12:00:43;1999.90;;;999.90;;
49858;SDS011;35756;52.346;13.622;2023-05-10T12:03:08;1999.90;;;999.90;;
49858;SDS011;35756;52.346;13.622;2023-05-10T12:05:35;1999.90;;;999.90;;
49858;SDS011;35756;52.346;13.622;2023-05-10T12:08:13;1999.90;;;999.90;;
49858;SDS011;35756;52.346;13.622;2023-05-10T12:10:39;1999.90;;;999.90;;
49858;SDS011;35756;52.346;13.622;2023-05-10T12:13:04;1999.90;;;999.90;;
49858;SDS011;35756;52.346;13.622;2023-05-10T12:15:30;1999.90;;;999.90;;
49858;SDS011;35756;52.346;13.622;2023-05-10T12:17:55;1999.90;;;999.90;;
49858;SDS011;35756;52.346;13.622;2023-05-10T12:20:22;1999.90;;;999.90;;
49858;SDS011;35756;52.346;13.622;2023-05-10T12:22:52;1999.90;;;999.90;;
49858;SDS011;35756;52.346;13.622;2023-05-10T12:25:19;1999.90;;;999.90;;
49858;SDS011;35756;52.346;13.622;2023-05-10T12:27:52;1999.90;;;999.90;;
49858;SDS011;35756;52.346;13.622;2023-05-10T12:30:19;1999.90;;;999.90;;
49858;SDS011;35756;52.346;13.622;2023-05-10T12:32:47;1999.90;;;999.90;;
49858;SDS011;35756;52.346;13.622;2023-05-10T12:35:13;1999.90;;;999.90;;
49858;SDS011;35756;52.346;13.622;2023-05-10T12:37:38;1999.90;;;999.90;;
49858;SDS011;35756;52.346;13.622;2023-05-10T12:40:05;1999.90;;;999.90;;
49858;SDS011;35756;52.346;13.622;2023-05-10T12:42:31;1999.90;;;999.90;;
49858;SDS011;35756;52.346;13.622;2023-05-10T12:44:57;1999.90;;;999.90;;
49858;SDS011;35756;52.346;13.622;2023-05-10T12:47:22;1999.90;;;999.90;;
49858;SDS011;35756;52.346;13.622;2023-05-10T12:49:47;1999.90;;;999.90;;
49858;SDS011;35756;52.346;13.622;2023-05-10T12:52:13;1999.90;;;999.90;;
49858;SDS011;35756;52.346;13.622;2023-05-10T12:54:38;1999.90;;;999.90;;
49858;SDS011;35756;52.346;13.622;2023-05-10T12:57:03;1999.90;;;999.90;;
49858;SDS011;35756;52.346;13.622;2023-05-10T12:59:29;1999.90;;;999.90;;
49858;SDS011;35756;52.346;13.622;2023-05-10T13:01:54;1999.90;;;999.90;;
49858;SDS011;35756;52.346;13.622;2023-05-10T13:04:19;1999.90;;;999.90;;
49858;SDS011;35756;52.346;13.622;2023-05-10T13:06:45;1999.90;;;999.90;;
49858;SDS011;35756;52.346;13.622;2023-05-10T13:09:10;1999.90;;;999.90;;
49858;SDS011;35756;52.346;13.622;2023-05-10T13:11:35;1999.90;;;999.90;;
49858;SDS011;35756;52.346;13.622;2023-05-10T13:14:01;1999.90;;;999.90;;
49858;SDS011;35756;52.346;13.622;2023-05-10T13:16:28;1999.90;;;999.90;;
49858;SDS011;35756;52.346;13.622;2023-05-10T13:18:53;1999.90;;;999.90;;
49858;SDS011;35756;52.346;13.622;2023-05-10T13:21:18;1999.90;;;999.90;;
49858;SDS011;35756;52.346;13.622;2023-05-10T13:23:43;1999.90;;;999.90;;
49858;SDS011;35756;52.346;13.622;2023-05-10T13:49:41;1999.90;;;999.90;;
49858;SDS011;35756;52.346;13.622;2023-05-10T13:52:07;1999.90;;;999.90;;
49858;SDS011;35756;52.346;13.622;2023-05-10T13:54:33;1999.90;;;999.90;;
49858;SDS011;35756;52.346;13.622;2023-05-10T13:56:59;1999.90;;;999.90;;
49858;SDS011;35756;52.346;13.622;2023-05-10T13:59:24;1999.90;;;999.90;;
49858;SDS011;35756;52.346;13.622;2023-05-10T14:01:50;1999.90;;;999.90;;
49858;SDS011;35756;52.346;13.622;2023-05-10T14:04:15;1999.90;;;999.90;;
49858;SDS011;35756;52.346;13.622;2023-05-10T14:06:40;1999.90;;;999.90;;
49858;SDS011;35756;52.346;13.622;2023-05-10T14:09:06;1999.90;;;999.90;;
49858;SDS011;35756;52.346;13.622;2023-05-10T14:11:32;1999.90;;;999.90;;
49858;SDS011;35756;52.346;13.622;2023-05-10T14:13:57;1999.90;;;999.90;;
49858;SDS011;35756;52.346;13.622;2023-05-10T14:16:23;1999.90;;;999.90;;
49858;SDS011;35756;52.346;13.622;2023-05-10T14:18:48;1999.90;;;999.90;;